Shiloh, Pennsylvania
Current Conditions -  °F | °C
As of 1:53 AM on Wednesday 22 Oct 2014 (Local Time) from KTHV Reporting Station
Light Rain Light Rain  
Wind Chill: 52°   Ceiling: 3900
Heat Index: 52°   Visibility: 10mi
Dew Point: 49°   Wind: 3mph
Humidity: 89%   Direction: NA
Pressure: 29.89"   Gusts: NA
Location:  39.9718°N, 76.7746°W
Report Text: KTHV 220553Z AUTO VRB03KT 10SM -RA BKN039 OVC075 11/09 A2989 RMK AO2 RAB08E21B45 SLP123 P0000 60003 T01110094 10117 20106 58008
Loading
Personal Weather Stations






























Interactive Weather Map
Tropical Storm Tracking
New forecast layout! Learn more

10-Day Weather Forecast

Advertisements
Track Severe Weather on mobile